Time,TemperatureF,DewpointF,PressureIn,WindDirection,WindDirectionDegrees,WindSpeedMPH,WindSpeedGustMPH,Humidity,HourlyPrecipIn,Conditions,Clouds,dailyrainin,SolarRadiationWatts/m^2,SoftwareType,DateUTC
2013-10-03 00:02:00,55.3,52.1,29.92,WNW,300,9.0,9.0,89,0.23,,OVC090,0.00,0.00,VWS V14.01,2013-10-03 05:02:00,
2013-10-03 00:07:00,55.3,52.1,29.94,NNW,342,2.0,16.0,89,0.24,,OVC090,0.01,0.00,VWS V14.01,2013-10-03 05:07:00,
2013-10-03 00:12:00,55.3,52.1,29.94,North,360,4.0,16.0,89,0.31,,OVC090,0.08,0.00,VWS V14.01,2013-10-03 05:12:00,
2013-10-03 00:17:00,55.1,51.9,29.91,NNW,333,0.0,16.0,89,0.32,,OVC090,0.09,0.00,VWS V14.01,2013-10-03 05:17:00,
2013-10-03 00:22:00,55.1,51.9,29.93,NNW,340,0.0,16.0,89,0.34,, +RA,0.11,0.00,VWS V14.01,2013-10-03 05:22:00,
2013-10-03 00:27:00,55.0,51.8,29.92,North,9,0.0,16.0,89,0.35,, +RA,0.12,0.00,VWS V14.01,2013-10-03 05:27:00,
2013-10-03 00:32:00,55.0,51.8,29.92,NW,304,0.0,1.0,89,0.18,, +RA,0.15,0.00,VWS V14.01,2013-10-03 05:32:00,
2013-10-03 00:37:00,54.9,51.7,29.91,NW,304,0.0,1.0,89,0.25,, +RA,0.22,0.00,VWS V14.01,2013-10-03 05:37:00,
2013-10-03 00:42:00,54.9,51.7,29.91,NW,304,0.0,1.0,89,0.28,, +RA,0.25,0.00,VWS V14.01,2013-10-03 05:42:00,
2013-10-03 00:47:00,54.9,51.4,29.91,South,183,0.0,2.0,88,0.35,, +RA,0.32,0.00,VWS V14.01,2013-10-03 05:47:00,
2013-10-03 00:52:00,54.9,51.4,29.90,South,183,0.0,2.0,88,0.39,, +RA,0.36,0.00,VWS V14.01,2013-10-03 05:52:00,
2013-10-03 00:57:00,54.9,51.4,29.88,SE,133,1.0,3.0,88,0.50,, +RA,0.48,0.00,VWS V14.01,2013-10-03 05:57:00,
2013-10-03 01:02:00,54.8,51.3,29.87,ESE,120,1.0,4.0,88,0.57,, +RA,0.57,0.00,VWS V14.01,2013-10-03 06:02:00,
2013-10-03 01:07:00,54.8,51.3,29.86,ESE,116,1.0,4.0,88,0.65,, +RA,0.65,0.00,VWS V14.01,2013-10-03 06:07:00,
2013-10-03 01:12:00,54.9,51.4,29.87,ESE,116,0.0,4.0,88,0.68,, +RA,0.68,0.00,VWS V14.01,2013-10-03 06:12:00,
2013-10-03 01:17:00,54.9,51.4,29.87,ESE,116,1.0,4.0,88,0.70,, +RA,0.70,0.00,VWS V14.01,2013-10-03 06:17:00,
2013-10-03 01:22:00,55.0,51.5,29.87,ESE,106,0.0,4.0,88,0.73,,RA,0.73,0.00,VWS V14.01,2013-10-03 06:22:00,
2013-10-03 01:27:00,55.1,51.6,29.87,SSE,148,0.0,4.0,88,0.75,,RA,0.75,0.00,VWS V14.01,2013-10-03 06:27:00,
2013-10-03 01:32:00,55.2,51.7,29.87,SE,128,0.0,2.0,88,0.63,,RA,0.76,0.00,VWS V14.01,2013-10-03 06:32:00,
2013-10-03 01:37:00,55.3,51.8,29.86,SE,128,0.0,2.0,88,0.65,,RA,0.78,0.00,VWS V14.01,2013-10-03 06:37:00,
2013-10-03 01:42:00,55.4,51.9,29.86,ESE,121,0.0,2.0,88,0.66,,RA,0.79,0.00,VWS V14.01,2013-10-03 06:42:00,
2013-10-03 01:47:00,55.6,52.1,29.86,East,92,0.0,2.0,88,0.67,,RA,0.80,0.00,VWS V14.01,2013-10-03 06:47:00,
2013-10-03 01:52:00,55.7,52.2,29.85,East,92,0.0,2.0,88,0.68,,RA,0.81,0.00,VWS V14.01,2013-10-03 06:52:00,
2013-10-03 01:57:00,55.9,52.4,29.85,East,95,1.0,2.0,88,0.70,,RA,0.83,0.00,VWS V14.01,2013-10-03 06:57:00,
2013-10-03 02:02:00,56.0,52.5,29.85,East,87,0.0,1.0,88,0.34,, +RA,0.84,0.00,VWS V14.01,2013-10-03 07:02:00,
2013-10-03 02:07:00,56.0,52.5,29.86,SE,138,0.0,2.0,88,0.36,, +RA,0.86,0.00,VWS V14.01,2013-10-03 07:07:00,
2013-10-03 02:12:00,56.2,52.7,29.86,ESE,123,1.0,2.0,88,0.38,, +RA,0.88,0.00,VWS V14.01,2013-10-03 07:12:00,
2013-10-03 02:17:00,56.3,52.5,29.86,ESE,123,0.0,2.0,87,0.40,, +RA,0.90,0.00,VWS V14.01,2013-10-03 07:17:00,
2013-10-03 02:22:00,56.4,52.9,29.86,ESE,123,0.0,2.0,88,0.42,, +RA,0.92,0.00,VWS V14.01,2013-10-03 07:22:00,
2013-10-03 02:27:00,56.4,52.9,29.86,ESE,123,0.0,2.0,88,0.43,, +RA,0.93,0.00,VWS V14.01,2013-10-03 07:27:00,
2013-10-03 02:32:00,56.4,52.9,29.86,ESE,123,0.0,1.0,88,0.20,, +RA,0.95,0.00,VWS V14.01,2013-10-03 07:32:00,
2013-10-03 02:37:00,56.3,52.8,29.85,ESE,123,0.0,2.0,88,0.21,, +RA,0.96,0.00,VWS V14.01,2013-10-03 07:37:00,
2013-10-03 02:42:00,56.3,52.8,29.84,ESE,123,0.0,2.0,88,0.23,, +RA,0.98,0.00,VWS V14.01,2013-10-03 07:42:00,
2013-10-03 02:47:00,56.1,52.6,29.84,ESE,123,0.0,2.0,88,0.23,, +RA,0.98,0.00,VWS V14.01,2013-10-03 07:47:00,
2013-10-03 02:52:00,56.0,52.5,29.82,ESE,123,0.0,3.0,88,0.24,, +RA,0.99,0.00,VWS V14.01,2013-10-03 07:52:00,
2013-10-03 02:57:00,56.0,52.5,29.81,East,94,1.0,3.0,88,0.25,, +RA,1.00,0.00,VWS V14.01,2013-10-03 07:57:00,
2013-10-03 03:02:00,55.9,52.4,29.80,East,100,0.0,5.0,88,0.17,, +RA,1.00,0.00,VWS V14.01,2013-10-03 08:02:00,
2013-10-03 03:07:00,55.9,52.4,29.79,ESE,113,1.0,5.0,88,0.17,, +RA,1.00,0.00,VWS V14.01,2013-10-03 08:07:00,
2013-10-03 03:12:00,55.9,52.4,29.79,East,97,2.0,5.0,88,0.17,, +RA,1.00,0.00,VWS V14.01,2013-10-03 08:12:00,
2013-10-03 03:17:00,55.8,52.3,29.80,ENE,57,1.0,5.0,88,0.17,, +RA,1.00,0.00,VWS V14.01,2013-10-03 08:17:00,
2013-10-03 03:22:00,55.8,52.3,29.81,ESE,117,2.0,6.0,88,0.17,,-RA,1.00,0.00,VWS V14.01,2013-10-03 08:22:00,
2013-10-03 03:27:00,55.8,52.3,29.81,SE,138,1.0,6.0,88,0.17,,-RA,1.00,0.00,VWS V14.01,2013-10-03 08:27:00,
2013-10-03 03:32:00,55.8,52.3,29.82,ESE,102,0.0,3.0,88,0.06,,-RA,1.00,0.00,VWS V14.01,2013-10-03 08:32:00,
2013-10-03 03:37:00,55.7,52.2,29.82,ESE,102,0.0,3.0,88,0.06,,-RA,1.00,0.00,VWS V14.01,2013-10-03 08:37:00,
2013-10-03 03:42:00,55.6,52.1,29.83,East,86,0.0,3.0,88,0.06,,-RA,1.00,0.00,VWS V14.01,2013-10-03 08:42:00,
2013-10-03 03:47:00,55.5,52.0,29.83,East,86,0.0,3.0,88,0.06,,-RA,1.00,0.00,VWS V14.01,2013-10-03 08:47:00,
2013-10-03 03:52:00,55.3,52.1,29.83,East,86,0.0,3.0,89,0.06,,-RA,1.00,0.00,VWS V14.01,2013-10-03 08:52:00,
2013-10-03 03:57:00,55.2,51.7,29.84,East,86,0.0,3.0,88,0.06,,-RA,1.00,0.00,VWS V14.01,2013-10-03 08:57:00,
2013-10-03 04:02:00,55.1,51.6,29.83,East,86,0.0,0.0,88,0.00,,CLR,1.00,0.00,VWS V14.01,2013-10-03 09:02:00,
2013-10-03 04:07:00,55.1,51.6,29.83,East,86,0.0,0.0,88,0.00,,CLR,1.00,0.00,VWS V14.01,2013-10-03 09:07:00,
2013-10-03 04:12:00,55.0,51.5,29.83,East,86,0.0,0.0,88,0.00,,CLR,1.00,0.00,VWS V14.01,2013-10-03 09:12:00,
2013-10-03 04:17:00,54.9,51.4,29.83,East,86,0.0,0.0,88,0.00,,CLR,1.00,0.00,VWS V14.01,2013-10-03 09:17:00,
2013-10-03 04:22:00,54.8,51.3,29.83,East,86,0.0,0.0,88,0.00,,CLR,1.00,0.00,VWS V14.01,2013-10-03 09:22:00,
2013-10-03 04:27:00,54.6,51.4,29.84,East,86,0.0,0.0,89,0.00,,CLR,1.00,0.00,VWS V14.01,2013-10-03 09:27:00,
2013-10-03 04:32:00,54.6,51.4,29.83,East,86,0.0,0.0,89,0.00,,CLR,1.00,0.00,VWS V14.01,2013-10-03 09:32:00,
2013-10-03 04:37:00,54.5,51.0,29.84,East,86,0.0,0.0,88,0.00,,CLR,1.00,0.00,VWS V14.01,2013-10-03 09:37:00,
2013-10-03 04:42:00,54.5,51.0,29.84,East,86,0.0,0.0,88,0.00,,CLR,1.00,0.00,VWS V14.01,2013-10-03 09:42:00,
2013-10-03 04:47:00,54.6,51.1,29.84,East,86,0.0,0.0,88,0.00,,CLR,1.00,0.00,VWS V14.01,2013-10-03 09:47:00,
2013-10-03 04:52:00,54.6,51.1,29.84,East,86,0.0,0.0,88,0.00,,CLR,1.00,0.00,VWS V14.01,2013-10-03 09:52:00,
2013-10-03 04:57:00,54.6,51.1,29.84,East,86,0.0,0.0,88,0.00,,CLR,1.00,0.00,VWS V14.01,2013-10-03 09:57:00,
2013-10-03 05:02:00,54.6,51.1,29.83,East,86,0.0,0.0,88,0.00,,CLR,1.00,0.00,VWS V14.01,2013-10-03 10:02:00,
2013-10-03 05:07:00,54.7,51.2,29.84,East,86,0.0,0.0,88,0.00,,CLR,1.00,0.00,VWS V14.01,2013-10-03 10:07:00,
2013-10-03 05:12:00,54.6,51.1,29.84,East,86,0.0,0.0,88,0.00,,CLR,1.00,0.00,VWS V14.01,2013-10-03 10:12:00,
2013-10-03 05:17:00,54.4,50.9,29.84,East,86,0.0,0.0,88,0.00,,CLR,1.00,0.00,VWS V14.01,2013-10-03 10:17:00,
2013-10-03 05:22:00,54.3,50.8,29.84,East,86,0.0,0.0,88,0.00,,SCT070,1.00,0.00,VWS V14.01,2013-10-03 10:22:00,
2013-10-03 05:27:00,54.3,50.8,29.85,East,86,0.0,0.0,88,0.00,,SCT070,1.00,0.00,VWS V14.01,2013-10-03 10:27:00,
2013-10-03 05:32:00,54.3,50.8,29.85,East,86,0.0,0.0,88,0.00,,SCT070,1.00,0.00,VWS V14.01,2013-10-03 10:32:00,
2013-10-03 05:37:00,54.4,50.9,29.85,East,86,0.0,0.0,88,0.00,,SCT070,1.00,0.00,VWS V14.01,2013-10-03 10:37:00,
2013-10-03 05:42:00,54.4,50.9,29.85,East,86,0.0,0.0,88,0.00,,SCT070,1.00,0.00,VWS V14.01,2013-10-03 10:42:00,
2013-10-03 05:47:00,54.6,51.1,29.85,East,86,0.0,0.0,88,0.00,,SCT070,1.00,0.00,VWS V14.01,2013-10-03 10:47:00,
2013-10-03 05:52:00,54.6,51.1,29.85,East,86,0.0,0.0,88,0.00,,SCT070,1.00,0.00,VWS V14.01,2013-10-03 10:52:00,
2013-10-03 05:57:00,54.6,51.1,29.85,East,86,0.0,0.0,88,0.00,,SCT070,1.00,0.00,VWS V14.01,2013-10-03 10:57:00,
2013-10-03 06:02:00,54.5,51.0,29.85,East,86,0.0,0.0,88,0.00,,BKN065,1.00,0.00,VWS V14.01,2013-10-03 11:02:00,
2013-10-03 06:07:00,54.4,50.9,29.86,East,86,0.0,0.0,88,0.00,,BKN065,1.00,0.00,VWS V14.01,2013-10-03 11:07:00,
2013-10-03 06:12:00,54.3,50.8,29.85,East,86,0.0,0.0,88,0.00,,BKN065,1.00,0.00,VWS V14.01,2013-10-03 11:12:00,
2013-10-03 06:17:00,54.2,50.7,29.85,East,86,0.0,0.0,88,0.00,,BKN065,1.00,0.00,VWS V14.01,2013-10-03 11:17:00,
2013-10-03 06:22:00,54.2,50.7,29.85,East,86,0.0,0.0,88,0.00,,BKN065,1.00,0.00,VWS V14.01,2013-10-03 11:22:00,
2013-10-03 06:27:00,54.1,50.6,29.85,East,86,0.0,0.0,88,0.00,,BKN065,1.00,0.00,VWS V14.01,2013-10-03 11:27:00,
2013-10-03 06:32:00,54.0,50.5,29.85,East,86,0.0,0.0,88,0.00,,BKN065,1.00,0.00,VWS V14.01,2013-10-03 11:32:00,
2013-10-03 06:37:00,54.0,50.5,29.85,East,86,0.0,0.0,88,0.00,,BKN065,1.00,0.00,VWS V14.01,2013-10-03 11:37:00,
2013-10-03 06:42:00,54.0,50.5,29.85,East,86,0.0,0.0,88,0.00,,BKN065,1.00,0.00,VWS V14.01,2013-10-03 11:42:00,
2013-10-03 06:47:00,54.0,50.5,29.85,East,86,0.0,0.0,88,0.00,,BKN065,1.00,0.00,VWS V14.01,2013-10-03 11:47:00,
2013-10-03 06:52:00,54.0,50.5,29.86,East,86,0.0,1.0,88,0.00,,BKN065,1.00,0.00,VWS V14.01,2013-10-03 11:52:00,
2013-10-03 06:57:00,54.0,50.5,29.86,East,86,0.0,1.0,88,0.00,,BKN065,1.00,0.00,VWS V14.01,2013-10-03 11:57:00,
2013-10-03 07:02:00,53.9,50.4,29.87,East,86,0.0,1.0,88,0.00,,BKN065,1.00,0.00,VWS V14.01,2013-10-03 12:02:00,
2013-10-03 07:07:00,53.9,50.4,29.87,East,86,0.0,1.0,88,0.00,,BKN065,1.00,0.00,VWS V14.01,2013-10-03 12:07:00,
2013-10-03 07:13:00,53.9,50.4,29.87,East,86,0.0,1.0,88,0.00,,BKN065,1.00,0.00,VWS V14.01,2013-10-03 12:13:00,
2013-10-03 07:18:00,53.8,50.3,29.86,East,86,0.0,1.0,88,0.00,,BKN065,1.00,0.00,VWS V14.01,2013-10-03 12:18:00,
2013-10-03 07:23:00,53.7,50.2,29.86,East,86,0.0,1.0,88,0.00,,CLR,1.00,5.00,VWS V14.01,2013-10-03 12:23:00,
2013-10-03 07:28:00,53.6,50.1,29.86,East,86,0.0,1.0,88,0.00,,CLR,1.00,5.00,VWS V14.01,2013-10-03 12:28:00,
2013-10-03 07:33:00,53.5,50.0,29.85,East,86,0.0,0.0,88,0.00,,CLR,1.00,7.00,VWS V14.01,2013-10-03 12:33:00,
2013-10-03 07:38:00,53.6,50.1,29.85,East,86,0.0,0.0,88,0.00,,CLR,1.00,11.00,VWS V14.01,2013-10-03 12:38:00,
2013-10-03 07:43:00,53.7,50.2,29.85,East,86,0.0,0.0,88,0.00,,CLR,1.00,12.00,VWS V14.01,2013-10-03 12:43:00,
2013-10-03 07:48:00,53.7,50.2,29.85,East,86,0.0,0.0,88,0.00,,CLR,1.00,14.00,VWS V14.01,2013-10-03 12:48:00,
2013-10-03 07:53:00,53.7,50.2,29.85,East,80,0.0,2.0,88,0.00,,CLR,1.00,18.00,VWS V14.01,2013-10-03 12:53:00,
2013-10-03 07:58:00,53.7,50.2,29.84,East,80,0.0,2.0,88,0.00,,CLR,1.00,23.00,VWS V14.01,2013-10-03 12:58:00,
2013-10-03 08:03:00,53.8,50.3,29.85,East,80,0.0,0.0,88,0.00,,CLR,1.00,28.00,VWS V14.01,2013-10-03 13:03:00,
2013-10-03 08:08:00,53.8,50.3,29.84,East,80,0.0,0.0,88,0.00,,CLR,1.00,30.00,VWS V14.01,2013-10-03 13:08:00,
2013-10-03 08:13:00,53.8,50.3,29.84,East,80,0.0,0.0,88,0.00,,CLR,1.00,30.00,VWS V14.01,2013-10-03 13:13:00,
2013-10-03 08:18:00,53.8,50.3,29.85,East,80,0.0,0.0,88,0.00,,CLR,1.00,30.00,VWS V14.01,2013-10-03 13:18:00,
2013-10-03 08:23:00,53.8,50.3,29.85,East,80,0.0,1.0,88,0.00,,SCT070,1.00,33.00,VWS V14.01,2013-10-03 13:23:00,
2013-10-03 08:28:00,53.8,50.3,29.85,East,80,0.0,1.0,88,0.00,,SCT070,1.00,39.00,VWS V14.01,2013-10-03 13:28:00,
2013-10-03 08:33:00,53.7,50.2,29.85,East,80,0.0,0.0,88,0.00,,SCT070,1.00,44.00,VWS V14.01,2013-10-03 13:33:00,
2013-10-03 08:38:00,53.7,50.2,29.85,East,80,0.0,0.0,88,0.00,,SCT070,1.00,42.00,VWS V14.01,2013-10-03 13:38:00,
2013-10-03 08:43:00,53.7,50.2,29.84,East,80,0.0,0.0,88,0.00,,SCT070,1.00,46.00,VWS V14.01,2013-10-03 13:43:00,
2013-10-03 08:48:00,53.7,50.2,29.84,East,80,0.0,0.0,88,0.00,,SCT070,1.00,56.00,VWS V14.01,2013-10-03 13:48:00,
2013-10-03 08:53:00,53.8,50.3,29.84,East,96,0.0,1.0,88,0.00,,SCT070,1.00,69.00,VWS V14.01,2013-10-03 13:53:00,
2013-10-03 08:58:00,53.8,50.3,29.84,East,96,0.0,2.0,88,0.00,,SCT070,1.00,72.00,VWS V14.01,2013-10-03 13:58:00,
2013-10-03 09:03:00,53.9,50.4,29.83,East,96,0.0,0.0,88,0.00,,SCT070,1.00,77.00,VWS V14.01,2013-10-03 14:03:00,
2013-10-03 09:08:00,54.0,50.5,29.83,East,96,0.0,0.0,88,0.00,,SCT070,1.00,88.00,VWS V14.01,2013-10-03 14:08:00,
2013-10-03 09:13:00,54.1,50.6,29.83,East,96,0.0,0.0,88,0.00,,SCT070,1.00,97.00,VWS V14.01,2013-10-03 14:13:00,
2013-10-03 09:18:00,54.2,50.7,29.83,East,96,0.0,1.0,88,0.00,,SCT070,1.00,102.00,VWS V14.01,2013-10-03 14:18:00,
2013-10-03 09:23:00,54.2,50.7,29.83,SW,227,0.0,1.0,88,0.00,,CLR,1.00,105.00,VWS V14.01,2013-10-03 14:23:00,
2013-10-03 09:28:00,54.3,50.8,29.82,SW,227,0.0,1.0,88,0.00,,CLR,1.00,111.00,VWS V14.01,2013-10-03 14:28:00,
2013-10-03 09:33:00,54.5,51.0,29.82,SW,227,0.0,0.0,88,0.00,,CLR,1.00,116.00,VWS V14.01,2013-10-03 14:33:00,
2013-10-03 09:38:00,54.6,51.1,29.82,SW,227,0.0,0.0,88,0.00,,CLR,1.00,118.00,VWS V14.01,2013-10-03 14:38:00,
2013-10-03 09:43:00,54.7,51.2,29.82,SW,227,0.0,0.0,88,0.00,,FEW005,1.00,132.00,VWS V14.01,2013-10-03 14:43:00,
2013-10-03 09:48:00,54.8,51.3,29.82,SW,227,0.0,1.0,88,0.00,,FEW005,1.00,139.00,VWS V14.01,2013-10-03 14:48:00,
2013-10-03 09:53:00,54.9,51.4,29.83,SW,227,0.0,1.0,88,0.00,,FEW005,1.00,141.00,VWS V14.01,2013-10-03 14:53:00,
2013-10-03 09:58:00,55.0,51.5,29.83,SW,227,0.0,1.0,88,0.00,,FEW005,1.00,144.00,VWS V14.01,2013-10-03 14:58:00,
2013-10-03 10:03:00,55.0,51.5,29.83,SW,227,0.0,1.0,88,0.00,,FEW005,1.00,139.00,VWS V14.01,2013-10-03 15:03:00,
2013-10-03 10:08:00,55.2,51.7,29.84,SW,227,0.0,1.0,88,0.00,,FEW005,1.00,146.00,VWS V14.01,2013-10-03 15:08:00,
2013-10-03 10:13:00,55.4,51.9,29.84,SW,227,0.0,1.0,88,0.00,,FEW005,1.00,151.00,VWS V14.01,2013-10-03 15:13:00,
2013-10-03 10:18:00,55.4,51.9,29.84,SW,227,0.0,1.0,88,0.00,,CLR,1.00,155.00,VWS V14.01,2013-10-03 15:18:00,
2013-10-03 10:23:00,55.4,51.9,29.84,SW,227,0.0,1.0,88,0.00,,CLR,1.00,172.00,VWS V14.01,2013-10-03 15:23:00,
2013-10-03 10:28:00,55.5,52.0,29.84,SW,227,0.0,1.0,88,0.00,,CLR,1.00,171.00,VWS V14.01,2013-10-03 15:28:00,
2013-10-03 10:33:00,55.7,52.2,29.84,SW,227,0.0,1.0,88,0.00,,CLR,1.00,174.00,VWS V14.01,2013-10-03 15:33:00,
2013-10-03 10:38:00,55.7,52.2,29.84,NNW,346,4.0,4.0,88,0.00,,CLR,1.00,190.00,VWS V14.01,2013-10-03 15:38:00,
2013-10-03 10:43:00,55.7,52.5,29.84,NNW,346,0.0,4.0,89,0.00,,CLR,1.00,204.00,VWS V14.01,2013-10-03 15:43:00,
2013-10-03 10:48:00,55.9,52.7,29.84,NNW,346,0.0,4.0,89,0.00,,CLR,1.00,223.00,VWS V14.01,2013-10-03 15:48:00,
2013-10-03 10:53:00,56.1,52.9,29.84,NNW,346,0.0,4.0,89,0.00,,CLR,1.00,221.00,VWS V14.01,2013-10-03 15:53:00,
2013-10-03 10:58:00,56.3,53.1,29.84,NNW,346,0.0,4.0,89,0.00,,CLR,1.00,216.00,VWS V14.01,2013-10-03 15:58:00,
2013-10-03 11:03:00,56.4,53.2,29.84,NNW,346,0.0,1.0,89,0.00,,CLR,1.00,214.00,VWS V14.01,2013-10-03 16:03:00,
2013-10-03 11:08:00,56.5,53.6,29.84,NNW,346,0.0,2.0,90,0.00,,CLR,1.00,229.00,VWS V14.01,2013-10-03 16:08:00,
2013-10-03 11:13:00,56.6,53.7,29.84,NNW,346,0.0,2.0,90,0.00,,CLR,1.00,243.00,VWS V14.01,2013-10-03 16:13:00,
2013-10-03 11:18:00,56.9,54.0,29.83,NNW,346,2.0,2.0,90,0.00,,CLR,1.00,255.00,VWS V14.01,2013-10-03 16:18:00,
2013-10-03 11:23:00,57.0,54.1,29.83,NNW,346,0.0,2.0,90,0.00,,CLR,1.00,276.00,VWS V14.01,2013-10-03 16:23:00,
2013-10-03 11:28:00,57.1,54.2,29.83,NNW,346,0.0,0.0,90,0.00,,CLR,1.00,292.00,VWS V14.01,2013-10-03 16:28:00,
2013-10-03 11:33:00,57.3,54.4,29.83,NNE,23,0.0,2.0,90,0.00,,CLR,1.00,323.00,VWS V14.01,2013-10-03 16:33:00,
2013-10-03 11:38:00,57.6,54.4,29.83,NNE,23,0.0,2.0,89,0.00,,CLR,1.00,279.00,VWS V14.01,2013-10-03 16:38:00,
2013-10-03 11:43:00,57.7,54.5,29.83,WNW,298,0.0,2.0,89,0.00,,CLR,1.00,227.00,VWS V14.01,2013-10-03 16:43:00,
2013-10-03 11:48:00,57.7,54.5,29.83,WNW,298,1.0,2.0,89,0.00,,CLR,1.00,207.00,VWS V14.01,2013-10-03 16:48:00,
2013-10-03 11:53:00,57.8,54.6,29.83,WNW,298,0.0,2.0,89,0.00,,CLR,1.00,218.00,VWS V14.01,2013-10-03 16:53:00,
2013-10-03 11:58:00,57.9,54.7,29.83,WNW,298,0.0,0.0,89,0.00,,CLR,1.00,186.00,VWS V14.01,2013-10-03 16:58:00,
2013-10-03 12:03:00,57.9,54.7,29.83,WNW,298,0.0,0.0,89,0.00,,CLR,1.00,169.00,VWS V14.01,2013-10-03 17:03:00,
2013-10-03 12:08:00,58.1,54.6,29.83,WNW,298,0.0,1.0,88,0.00,,CLR,1.00,158.00,VWS V14.01,2013-10-03 17:08:00,
2013-10-03 12:13:00,58.4,55.2,29.83,WNW,298,0.0,1.0,89,0.00,,CLR,1.00,171.00,VWS V14.01,2013-10-03 17:13:00,
2013-10-03 12:18:00,58.5,55.0,29.83,WNW,298,0.0,1.0,88,0.00,,SCT040,1.00,188.00,VWS V14.01,2013-10-03 17:18:00,
2013-10-03 12:23:00,58.6,55.1,29.83,WNW,298,0.0,1.0,88,0.00,,SCT040,1.00,179.00,VWS V14.01,2013-10-03 17:23:00,
2013-10-03 12:28:00,58.7,55.2,29.84,WNW,298,0.0,0.0,88,0.00,,SCT040,1.00,176.00,VWS V14.01,2013-10-03 17:28:00,
2013-10-03 12:33:00,58.8,55.3,29.83,WNW,298,0.0,0.0,88,0.00,,SCT040,1.00,223.00,VWS V14.01,2013-10-03 17:33:00,
2013-10-03 12:39:00,58.9,55.4,29.83,WNW,298,0.0,1.0,88,0.00,,SCT040,1.00,267.00,VWS V14.01,2013-10-03 17:39:00,
2013-10-03 12:44:00,59.1,55.2,29.83,WNW,298,0.0,1.0,87,0.00,,SCT040,1.00,258.00,VWS V14.01,2013-10-03 17:44:00,
2013-10-03 12:49:00,59.4,55.8,29.83,WNW,298,0.0,1.0,88,0.00,,SCT040,1.00,230.00,VWS V14.01,2013-10-03 17:49:00,
2013-10-03 12:54:00,59.5,55.6,29.82,WNW,298,0.0,1.0,87,0.00,,SCT040,1.00,211.00,VWS V14.01,2013-10-03 17:54:00,
2013-10-03 12:59:00,59.5,55.3,29.82,NW,309,0.0,0.0,86,0.00,,SCT040,1.00,185.00,VWS V14.01,2013-10-03 17:59:00,
2013-10-03 13:04:00,59.5,55.3,29.82,West,273,0.0,1.0,86,0.00,,SCT040,1.00,162.00,VWS V14.01,2013-10-03 18:04:00,
2013-10-03 13:09:00,59.7,55.5,29.81,West,273,0.0,1.0,86,0.00,,SCT040,1.00,144.00,VWS V14.01,2013-10-03 18:09:00,
2013-10-03 13:14:00,59.7,55.5,29.81,SW,225,0.0,2.0,86,0.00,,SCT040,1.00,137.00,VWS V14.01,2013-10-03 18:14:00,
2013-10-03 13:19:00,59.6,55.4,29.81,SW,225,0.0,2.0,86,0.00,,FEW036,1.00,139.00,VWS V14.01,2013-10-03 18:19:00,
2013-10-03 13:24:00,59.6,55.4,29.81,SW,225,0.0,2.0,86,0.00,,FEW036,1.00,151.00,VWS V14.01,2013-10-03 18:24:00,
2013-10-03 13:29:00,59.7,55.8,29.81,SW,225,0.0,0.0,87,0.00,,FEW036,1.00,160.00,VWS V14.01,2013-10-03 18:29:00,
2013-10-03 13:34:00,59.8,55.9,29.81,SW,225,0.0,1.0,87,0.00,,FEW036,1.00,153.00,VWS V14.01,2013-10-03 18:34:00,
2013-10-03 13:39:00,59.9,55.7,29.81,SW,225,0.0,1.0,86,0.00,,FEW036,1.00,137.00,VWS V14.01,2013-10-03 18:39:00,
2013-10-03 13:44:00,59.9,55.7,29.81,SW,225,0.0,1.0,86,0.00,,FEW036,1.00,128.00,VWS V14.01,2013-10-03 18:44:00,
2013-10-03 13:49:00,59.9,55.7,29.81,SW,225,0.0,1.0,86,0.00,,FEW036,1.00,123.00,VWS V14.01,2013-10-03 18:49:00,
2013-10-03 13:54:00,60.0,55.8,29.81,SW,225,0.0,1.0,86,0.00,,FEW036,1.00,120.00,VWS V14.01,2013-10-03 18:54:00,
2013-10-03 13:59:00,60.0,55.5,29.81,SW,225,0.0,0.0,85,0.00,,FEW036,1.00,120.00,VWS V14.01,2013-10-03 18:59:00,
2013-10-03 14:04:00,60.1,55.6,29.82,SW,225,0.0,1.0,85,0.00,,FEW036,1.00,118.00,VWS V14.01,2013-10-03 19:04:00,
2013-10-03 14:09:00,60.2,55.7,29.82,SW,225,0.0,1.0,85,0.00,,FEW036,1.00,107.00,VWS V14.01,2013-10-03 19:09:00,
2013-10-03 14:14:00,60.4,55.9,29.83,SW,225,0.0,1.0,85,0.00,,FEW036,1.00,83.00,VWS V14.01,2013-10-03 19:14:00,
2013-10-03 14:19:00,60.4,55.9,29.83,SW,225,0.0,1.0,85,0.00,,-RA,1.00,86.00,VWS V14.01,2013-10-03 19:19:00,
2013-10-03 14:24:00,60.4,55.9,29.82,SW,225,0.0,1.0,85,0.00,,-RA,1.00,98.00,VWS V14.01,2013-10-03 19:24:00,
2013-10-03 14:29:00,60.4,56.2,29.83,SW,225,0.0,0.0,86,0.00,,-RA,1.00,113.00,VWS V14.01,2013-10-03 19:29:00,
2013-10-03 14:34:00,60.4,56.2,29.83,SW,225,0.0,0.0,86,0.00,,-RA,1.00,127.00,VWS V14.01,2013-10-03 19:34:00,
2013-10-03 14:39:00,60.5,56.3,29.82,SW,225,0.0,0.0,86,0.00,,-RA,1.00,121.00,VWS V14.01,2013-10-03 19:39:00,
2013-10-03 14:44:00,60.6,56.1,29.82,SW,225,0.0,0.0,85,0.00,,-RA,1.00,130.00,VWS V14.01,2013-10-03 19:44:00,
2013-10-03 14:49:00,60.7,56.5,29.82,SW,225,0.0,0.0,86,0.00,,-RA,1.00,142.00,VWS V14.01,2013-10-03 19:49:00,
2013-10-03 14:54:00,60.9,56.4,29.81,SW,225,0.0,0.0,85,0.00,,-RA,1.00,113.00,VWS V14.01,2013-10-03 19:54:00,
2013-10-03 14:59:00,60.9,56.7,29.82,SW,225,0.0,0.0,86,0.00,,-RA,1.00,104.00,VWS V14.01,2013-10-03 19:59:00,
2013-10-03 15:04:00,61.0,56.8,29.82,SW,225,0.0,0.0,86,0.01,,-RA,1.01,109.00,VWS V14.01,2013-10-03 20:04:00,
2013-10-03 15:09:00,61.1,56.9,29.82,SW,225,0.0,0.0,86,0.01,,-RA,1.01,100.00,VWS V14.01,2013-10-03 20:09:00,
2013-10-03 15:14:00,61.0,56.8,29.83,SW,225,0.0,1.0,86,0.01,,-RA,1.01,102.00,VWS V14.01,2013-10-03 20:14:00,
2013-10-03 15:19:00,60.8,56.3,29.83,SW,225,0.0,1.0,85,0.01,,-RA,1.01,84.00,VWS V14.01,2013-10-03 20:19:00,
2013-10-03 15:24:00,60.7,56.8,29.82,SW,225,0.0,1.0,87,0.01,,-RA,1.01,62.00,VWS V14.01,2013-10-03 20:24:00,
2013-10-03 15:29:00,60.6,56.7,29.82,SW,225,0.0,0.0,87,0.01,,-RA,1.01,46.00,VWS V14.01,2013-10-03 20:29:00,
2013-10-03 15:34:00,60.4,56.5,29.81,SW,225,0.0,0.0,87,0.01,,-RA,1.01,49.00,VWS V14.01,2013-10-03 20:34:00,
2013-10-03 15:39:00,60.2,56.3,29.80,SW,225,0.0,0.0,87,0.01,,-RA,1.01,63.00,VWS V14.01,2013-10-03 20:39:00,
2013-10-03 15:44:00,60.1,56.5,29.80,SW,225,0.0,0.0,88,0.01,,-RA,1.01,65.00,VWS V14.01,2013-10-03 20:44:00,
2013-10-03 15:49:00,60.0,56.4,29.79,SW,225,0.0,0.0,88,0.01,,-RA,1.01,63.00,VWS V14.01,2013-10-03 20:49:00,
2013-10-03 15:54:00,59.9,56.3,29.79,SW,225,0.0,0.0,88,0.01,,-RA,1.01,76.00,VWS V14.01,2013-10-03 20:54:00,
2013-10-03 15:59:00,59.8,56.2,29.78,SW,225,0.0,0.0,88,0.01,,-RA,1.01,74.00,VWS V14.01,2013-10-03 20:59:00,
2013-10-03 16:04:00,59.7,56.5,29.78,SW,225,0.0,0.0,89,0.01,,-RA,1.01,74.00,VWS V14.01,2013-10-03 21:04:00,
2013-10-03 16:09:00,59.6,56.0,29.78,SW,225,0.0,0.0,88,0.01,,-RA,1.01,77.00,VWS V14.01,2013-10-03 21:09:00,
2013-10-03 16:14:00,59.6,56.0,29.78,SW,225,0.0,0.0,88,0.01,,-RA,1.01,72.00,VWS V14.01,2013-10-03 21:14:00,
2013-10-03 16:19:00,59.5,56.0,29.78,SW,225,0.0,0.0,88,0.01,,-RA,1.01,62.00,VWS V14.01,2013-10-03 21:19:00,
2013-10-03 16:24:00,59.5,56.0,29.78,South,169,0.0,1.0,88,0.01,,-RA,1.01,56.00,VWS V14.01,2013-10-03 21:24:00,
2013-10-03 16:29:00,59.5,56.0,29.78,South,170,0.0,0.0,88,0.00,,-RA,1.01,40.00,VWS V14.01,2013-10-03 21:29:00,
2013-10-03 16:34:00,59.4,55.8,29.78,South,170,0.0,2.0,88,0.00,,-RA,1.01,28.00,VWS V14.01,2013-10-03 21:34:00,
2013-10-03 16:39:00,59.3,55.8,29.78,South,170,0.0,2.0,88,0.00,,-RA,1.01,28.00,VWS V14.01,2013-10-03 21:39:00,
2013-10-03 16:44:00,59.3,55.8,29.78,South,170,0.0,2.0,88,0.00,,-RA,1.01,39.00,VWS V14.01,2013-10-03 21:44:00,
2013-10-03 16:49:00,59.2,55.7,29.79,South,170,0.0,2.0,88,0.00,,-RA,1.01,26.00,VWS V14.01,2013-10-03 21:49:00,
2013-10-03 16:54:00,59.1,55.9,29.80,West,271,0.0,2.0,89,0.00,,-RA,1.01,18.00,VWS V14.01,2013-10-03 21:54:00,
2013-10-03 16:59:00,59.0,55.8,29.80,WNW,289,0.0,0.0,89,0.00,,OVC120,1.01,19.00,VWS V14.01,2013-10-03 21:59:00,
2013-10-03 17:04:00,59.0,55.8,29.80,WNW,289,0.0,0.0,89,0.00,,OVC120,1.01,16.00,VWS V14.01,2013-10-03 22:04:00,
2013-10-03 17:09:00,58.9,55.7,29.81,WNW,289,0.0,0.0,89,0.00,,OVC120,1.01,12.00,VWS V14.01,2013-10-03 22:09:00,
2013-10-03 17:14:00,58.8,55.6,29.81,WNW,289,0.0,1.0,89,0.00,,OVC120,1.01,16.00,VWS V14.01,2013-10-03 22:14:00,
2013-10-03 17:19:00,58.7,55.5,29.82,WNW,289,0.0,1.0,89,0.00,,OVC120,1.01,12.00,VWS V14.01,2013-10-03 22:19:00,
2013-10-03 17:24:00,58.6,55.4,29.82,WNW,289,0.0,1.0,89,0.00,,OVC120,1.01,12.00,VWS V14.01,2013-10-03 22:24:00,
2013-10-03 17:29:00,58.5,55.3,29.82,WNW,289,0.0,0.0,89,0.00,,OVC120,1.01,12.00,VWS V14.01,2013-10-03 22:29:00,
2013-10-03 17:34:00,58.5,55.3,29.82,WNW,289,0.0,0.0,89,0.00,,OVC120,1.01,9.00,VWS V14.01,2013-10-03 22:34:00,
2013-10-03 17:39:00,58.5,55.3,29.83,WNW,289,0.0,0.0,89,0.00,,OVC120,1.01,5.00,VWS V14.01,2013-10-03 22:39:00,
2013-10-03 17:44:00,58.4,55.2,29.83,WNW,289,0.0,2.0,89,0.00,,OVC120,1.01,5.00,VWS V14.01,2013-10-03 22:44:00,
2013-10-03 17:49:00,58.5,55.3,29.83,WNW,289,0.0,2.0,89,0.00,,OVC120,1.01,7.00,VWS V14.01,2013-10-03 22:49:00,
2013-10-03 17:54:00,58.4,55.2,29.83,WNW,289,0.0,2.0,89,0.01,,OVC120,1.02,5.00,VWS V14.01,2013-10-03 22:54:00,
2013-10-03 17:59:00,58.4,55.2,29.83,WNW,289,0.0,0.0,89,0.01,,OVC080,1.02,0.00,VWS V14.01,2013-10-03 22:59:00,
2013-10-03 18:04:00,58.4,55.2,29.83,WNW,289,0.0,0.0,89,0.01,,OVC080,1.02,0.00,VWS V14.01,2013-10-03 23:04:00,
2013-10-03 18:09:00,58.4,55.2,29.83,WNW,289,0.0,0.0,89,0.01,,OVC080,1.02,0.00,VWS V14.01,2013-10-03 23:09:00,
2013-10-03 18:14:00,58.5,55.3,29.83,WNW,289,0.0,0.0,89,0.01,,OVC080,1.02,0.00,VWS V14.01,2013-10-03 23:14:00,
2013-10-03 18:19:00,58.5,55.3,29.83,WNW,289,0.0,0.0,89,0.01,,RA,1.02,0.00,VWS V14.01,2013-10-03 23:19:00,
2013-10-03 18:24:00,58.5,55.3,29.83,WNW,289,0.0,0.0,89,0.01,,RA,1.02,0.00,VWS V14.01,2013-10-03 23:24:00,
2013-10-03 18:29:00,58.5,55.3,29.83,WNW,289,0.0,0.0,89,0.01,,RA,1.02,0.00,VWS V14.01,2013-10-03 23:29:00,
2013-10-03 18:34:00,58.5,55.3,29.83,WNW,289,0.0,0.0,89,0.01,,RA,1.02,0.00,VWS V14.01,2013-10-03 23:34:00,
2013-10-03 18:39:00,58.4,55.2,29.83,WNW,289,0.0,1.0,89,0.01,,RA,1.02,0.00,VWS V14.01,2013-10-03 23:39:00,
2013-10-03 18:44:00,58.4,55.2,29.82,WNW,289,0.0,1.0,89,0.01,,RA,1.02,0.00,VWS V14.01,2013-10-03 23:44:00,
2013-10-03 18:49:00,58.4,55.2,29.82,WNW,289,0.0,1.0,89,0.01,,RA,1.02,0.00,VWS V14.01,2013-10-03 23:49:00,
2013-10-03 18:54:00,58.3,55.1,29.82,WNW,289,0.0,1.0,89,0.01,,RA,1.02,0.00,VWS V14.01,2013-10-03 23:54:00,
2013-10-03 18:59:00,58.3,55.1,29.83,WNW,289,0.0,0.0,89,0.00,,-RA,1.02,0.00,VWS V14.01,2013-10-03 23:59:00,
2013-10-03 19:04:00,58.2,55.0,29.83,WNW,289,0.0,0.0,89,0.00,,-RA,1.02,0.00,VWS V14.01,2013-10-04 00:04:00,
2013-10-03 19:09:00,58.2,55.0,29.83,WNW,289,1.0,1.0,89,0.00,,-RA,1.02,0.00,VWS V14.01,2013-10-04 00:09:00,
2013-10-03 19:14:00,58.3,55.1,29.83,WNW,289,0.0,1.0,89,0.00,,-RA,1.02,0.00,VWS V14.01,2013-10-04 00:14:00,
2013-10-03 19:19:00,58.3,55.1,29.83,WNW,289,0.0,1.0,89,0.00,,OVC014,1.02,0.00,VWS V14.01,2013-10-04 00:19:00,
2013-10-03 19:24:00,58.3,55.1,29.82,WNW,289,0.0,1.0,89,0.00,,OVC014,1.02,0.00,VWS V14.01,2013-10-04 00:24:00,
2013-10-03 19:29:00,58.3,55.1,29.82,WNW,289,0.0,0.0,89,0.00,,OVC014,1.02,0.00,VWS V14.01,2013-10-04 00:29:00,
2013-10-03 19:34:00,58.3,55.1,29.82,WNW,289,0.0,1.0,89,0.00,,OVC014,1.02,0.00,VWS V14.01,2013-10-04 00:34:00,
2013-10-03 19:39:00,58.4,55.2,29.82,WNW,289,0.0,1.0,89,0.00,,RA,1.02,0.00,VWS V14.01,2013-10-04 00:39:00,
2013-10-03 19:44:00,58.4,55.2,29.82,WNW,289,0.0,1.0,89,0.00,,RA,1.02,0.00,VWS V14.01,2013-10-04 00:44:00,
2013-10-03 19:49:00,58.4,55.2,29.82,WNW,289,0.0,2.0,89,0.00,,RA,1.02,0.00,VWS V14.01,2013-10-04 00:49:00,
2013-10-03 19:54:00,58.4,55.2,29.83,WNW,289,0.0,2.0,89,0.00,,RA,1.02,0.00,VWS V14.01,2013-10-04 00:54:00,
2013-10-03 19:59:00,58.4,55.2,29.83,WNW,289,0.0,0.0,89,0.02,,OVC014,1.04,0.00,VWS V14.01,2013-10-04 00:59:00,
2013-10-03 20:04:00,58.4,55.2,29.83,WNW,289,0.0,1.0,89,0.02,,OVC014,1.04,0.00,VWS V14.01,2013-10-04 01:04:00,
2013-10-03 20:09:00,58.3,55.1,29.83,WNW,289,0.0,1.0,89,0.03,,OVC014,1.05,0.00,VWS V14.01,2013-10-04 01:09:00,
2013-10-03 20:14:00,58.3,55.1,29.84,WNW,289,0.0,1.0,89,0.03,,OVC014,1.05,0.00,VWS V14.01,2013-10-04 01:14:00,
2013-10-03 20:19:00,58.2,55.0,29.83,WNW,289,0.0,1.0,89,0.05,,OVC014,1.07,0.00,VWS V14.01,2013-10-04 01:19:00,
2013-10-03 20:24:00,58.2,55.0,29.83,WNW,289,0.0,1.0,89,0.06,,OVC014,1.08,0.00,VWS V14.01,2013-10-04 01:24:00,
2013-10-03 20:29:00,58.1,54.9,29.84,WNW,289,0.0,1.0,89,0.07,,OVC014,1.09,0.00,VWS V14.01,2013-10-04 01:29:00,
2013-10-03 20:34:00,58.1,54.9,29.84,WNW,289,0.0,2.0,89,0.08,,OVC014,1.10,0.00,VWS V14.01,2013-10-04 01:34:00,
2013-10-03 20:39:00,58.0,54.5,29.84,WNW,289,0.0,2.0,88,0.09,,OVC010,1.11,0.00,VWS V14.01,2013-10-04 01:39:00,
2013-10-03 20:44:00,58.0,54.5,29.84,WNW,289,0.0,2.0,88,0.09,,OVC010,1.11,0.00,VWS V14.01,2013-10-04 01:44:00,
2013-10-03 20:49:00,57.9,54.4,29.84,WNW,289,0.0,2.0,88,0.10,,OVC010,1.12,0.00,VWS V14.01,2013-10-04 01:49:00,
2013-10-03 20:54:00,57.9,54.4,29.84,WNW,289,0.0,2.0,88,0.10,,OVC010,1.12,0.00,VWS V14.01,2013-10-04 01:54:00,
2013-10-03 20:59:00,57.9,54.4,29.84,WNW,289,0.0,0.0,88,0.09,,OVC010,1.12,0.00,VWS V14.01,2013-10-04 01:59:00,
2013-10-03 21:04:00,57.8,54.3,29.84,WNW,289,0.0,1.0,88,0.09,,OVC010,1.12,0.00,VWS V14.01,2013-10-04 02:04:00,
2013-10-03 21:09:00,57.8,54.3,29.84,WNW,298,0.0,2.0,88,0.09,,OVC010,1.12,0.00,VWS V14.01,2013-10-04 02:09:00,
2013-10-03 21:14:00,57.8,54.3,29.83,WNW,297,0.0,3.0,88,0.09,,OVC010,1.12,0.00,VWS V14.01,2013-10-04 02:14:00,
2013-10-03 21:19:00,57.7,54.2,29.83,WNW,297,0.0,3.0,88,0.09,,OVC010,1.12,0.00,VWS V14.01,2013-10-04 02:19:00,
2013-10-03 21:24:00,57.7,54.2,29.84,WNW,297,0.0,3.0,88,0.09,,OVC010,1.12,0.00,VWS V14.01,2013-10-04 02:24:00,
2013-10-03 21:29:00,57.7,54.2,29.84,WNW,297,0.0,0.0,88,0.04,,OVC010,1.12,0.00,VWS V14.01,2013-10-04 02:29:00,
2013-10-03 21:34:00,57.7,54.2,29.83,WSW,243,0.0,1.0,88,0.04,,OVC010,1.12,0.00,VWS V14.01,2013-10-04 02:34:00,
2013-10-03 21:39:00,57.7,54.2,29.83,WSW,246,0.0,1.0,88,0.04,,OVC010,1.12,0.00,VWS V14.01,2013-10-04 02:39:00,
2013-10-03 21:44:00,57.8,54.3,29.84,WSW,246,0.0,1.0,88,0.04,,OVC010,1.12,0.00,VWS V14.01,2013-10-04 02:44:00,
2013-10-03 21:49:00,57.8,54.3,29.84,WSW,246,0.0,1.0,88,0.04,,OVC010,1.12,0.00,VWS V14.01,2013-10-04 02:49:00,
2013-10-03 21:54:00,57.7,54.2,29.84,WSW,246,0.0,1.0,88,0.04,,OVC010,1.12,0.00,VWS V14.01,2013-10-04 02:54:00,
2013-10-03 21:59:00,57.8,54.3,29.84,WSW,246,0.0,0.0,88,0.00,,OVC010,1.12,0.00,VWS V14.01,2013-10-04 02:59:00,
2013-10-03 22:04:00,57.8,54.3,29.84,WSW,246,0.0,1.0,88,0.00,,OVC010,1.12,0.00,VWS V14.01,2013-10-04 03:04:00,
2013-10-03 22:09:00,57.8,54.3,29.84,WSW,246,0.0,1.0,88,0.00,,OVC010,1.12,0.00,VWS V14.01,2013-10-04 03:09:00,
2013-10-03 22:15:00,57.8,54.3,29.84,WSW,246,0.0,1.0,88,0.00,,OVC010,1.12,0.00,VWS V14.01,2013-10-04 03:15:00,
2013-10-03 22:20:00,57.8,54.3,29.84,WSW,246,0.0,1.0,88,0.00,,OVC008,1.12,0.00,VWS V14.01,2013-10-04 03:20:00,
2013-10-03 22:25:00,57.8,54.3,29.84,WSW,246,0.0,1.0,88,0.00,,OVC008,1.12,0.00,VWS V14.01,2013-10-04 03:25:00,
2013-10-03 22:30:00,57.9,54.4,29.85,WSW,246,0.0,0.0,88,0.00,,OVC008,1.12,0.00,VWS V14.01,2013-10-04 03:30:00,
2013-10-03 22:35:00,57.9,54.4,29.84,WSW,246,0.0,0.0,88,0.00,,OVC008,1.12,0.00,VWS V14.01,2013-10-04 03:35:00,
2013-10-03 22:40:00,57.9,54.4,29.84,WSW,246,0.0,0.0,88,0.00,,OVC008,1.12,0.00,VWS V14.01,2013-10-04 03:40:00,
2013-10-03 22:45:00,57.9,54.4,29.84,WSW,246,0.0,0.0,88,0.00,,OVC008,1.12,0.00,VWS V14.01,2013-10-04 03:45:00,
2013-10-03 22:50:00,58.0,54.5,29.84,WSW,246,0.0,0.0,88,0.00,,OVC008,1.12,0.00,VWS V14.01,2013-10-04 03:50:00,
2013-10-03 22:55:00,58.0,54.5,29.85,WSW,246,0.0,0.0,88,0.00,,OVC008,1.12,0.00,VWS V14.01,2013-10-04 03:55:00,
2013-10-03 23:00:00,58.0,54.5,29.85,WSW,246,0.0,0.0,88,0.00,,OVC008,1.12,0.00,VWS V14.01,2013-10-04 04:00:00,
2013-10-03 23:32:00,58.0,54.5,29.85,WSW,246,0.0,0.0,88,0.00,,OVC008,1.12,0.00,VWS V14.01,2013-10-04 04:32:00,
2013-10-03 23:33:00,58.1,54.6,29.86,WSW,246,0.0,0.0,88,0.00,,OVC008,1.12,0.00,VWS V14.01,2013-10-04 04:33:00,
2013-10-03 23:34:00,58.1,54.6,29.85,WSW,246,0.0,0.0,88,0.00,,OVC008,1.12,0.00,VWS V14.01,2013-10-04 04:34:00,
2013-10-03 23:35:00,58.0,54.5,29.85,WSW,246,0.0,0.0,88,0.00,,OVC008,1.12,0.00,VWS V14.01,2013-10-04 04:35:00,
2013-10-03 23:37:00,58.1,54.6,29.85,WSW,246,0.0,0.0,88,0.00,,OVC008,1.12,0.00,VWS V14.01,2013-10-04 04:37:00,
2013-10-03 23:38:00,58.1,54.6,29.86,WSW,246,0.0,0.0,88,0.00,,OVC008,1.12,0.00,VWS V14.01,2013-10-04 04:38:00,
2013-10-03 23:42:00,58.1,54.6,29.85,WSW,246,0.0,0.0,88,0.00,,OVC008,1.12,0.00,VWS V14.01,2013-10-04 04:42:00,
2013-10-03 23:43:00,58.1,54.6,29.85,WSW,246,0.0,0.0,88,0.00,,OVC008,1.12,0.00,VWS V14.01,2013-10-04 04:43:00,
2013-10-03 23:44:00,58.1,54.6,29.86,WSW,246,0.0,0.0,88,0.00,,OVC008,1.12,0.00,VWS V14.01,2013-10-04 04:44:00,
2013-10-03 23:45:00,58.1,54.6,29.86,WSW,246,0.0,0.0,88,0.00,,OVC008,1.12,0.00,VWS V14.01,2013-10-04 04:45:00,
2013-10-03 23:46:00,58.1,54.6,29.86,WSW,246,0.0,0.0,88,0.00,,OVC008,1.12,0.00,VWS V14.01,2013-10-04 04:46:00,
2013-10-03 23:50:00,58.1,54.6,29.86,WSW,246,0.0,0.0,88,0.00,,OVC008,1.12,0.00,VWS V14.01,2013-10-04 04:50:00,
2013-10-03 23:54:00,58.0,54.5,29.86,WSW,246,0.0,0.0,88,0.00,,OVC008,1.12,0.00,VWS V14.01,2013-10-04 04:54:00,
2013-10-03 23:56:00,58.0,54.5,29.85,WSW,246,0.0,0.0,88,0.00,,OVC008,1.12,0.00,VWS V14.01,2013-10-04 04:56:00,
2013-10-03 23:58:00,58.0,54.5,29.85,WSW,246,0.0,0.0,88,0.00,,OVC008,1.12,0.00,VWS V14.01,2013-10-04 04:58:00,